Time,TemperatureF,DewpointF,PressureIn,WindDirection,WindDirectionDegrees,WindSpeedMPH,WindSpeedGustMPH,Humidity,HourlyPrecipIn,Conditions,Clouds,dailyrainin,SoftwareType,DateUTC
2013-10-17 00:00:00,33.6,33.1,29.82,East,90,0.0,0.0,98,0.00,,SKC,0.00,VWS V14.01,2013-10-17 05:00:00,
2013-10-17 00:20:00,33.3,32.8,29.82,East,90,0.0,0.0,98,0.00,,SKC,0.00,VWS V14.01,2013-10-17 05:20:00,
2013-10-17 00:40:00,33.1,32.6,29.82,East,90,0.0,0.0,98,0.00,,SKC,0.00,VWS V14.01,2013-10-17 05:40:00,
2013-10-17 01:00:00,32.9,32.4,29.82,East,90,0.0,0.0,98,0.00,,SKC,0.00,VWS V14.01,2013-10-17 06:00:00,
2013-10-17 01:40:00,32.7,32.2,29.79,East,90,0.0,0.0,98,0.00,,SKC,0.00,VWS V14.01,2013-10-17 06:40:00,
2013-10-17 02:20:00,32.5,32.0,29.79,East,90,0.0,0.0,98,0.00,,SKC,0.00,VWS V14.01,2013-10-17 07:20:00,
2013-10-17 02:40:00,32.5,32.0,29.79,East,90,0.0,0.0,98,0.00,,SKC,0.00,VWS V14.01,2013-10-17 07:40:00,
2013-10-17 03:00:00,32.5,32.0,29.79,East,90,0.0,0.0,98,0.00,,SKC,0.00,VWS V14.01,2013-10-17 08:00:00,
2013-10-17 03:20:00,32.4,31.9,29.79,East,90,0.0,0.0,98,0.00,,SKC,0.00,VWS V14.01,2013-10-17 08:20:00,
2013-10-17 03:40:00,32.4,31.9,29.79,East,90,0.0,0.0,98,0.00,,SKC,0.00,VWS V14.01,2013-10-17 08:40:00,
2013-10-17 04:00:00,32.4,31.9,29.79,East,90,0.0,0.0,98,0.00,,SKC,0.00,VWS V14.01,2013-10-17 09:00:00,
2013-10-17 04:20:00,32.4,31.9,29.79,East,90,0.0,0.0,98,0.00,,SKC,0.00,VWS V14.01,2013-10-17 09:20:00,
2013-10-17 04:40:00,32.5,32.0,29.79,East,90,0.0,0.0,98,0.00,,SKC,0.00,VWS V14.01,2013-10-17 09:40:00,
2013-10-17 05:00:00,32.9,32.4,29.79,East,90,0.0,0.0,98,0.00,,SKC,0.00,VWS V14.01,2013-10-17 10:00:00,
2013-10-17 05:20:00,33.3,32.8,29.79,East,90,0.0,0.0,98,0.00,,SKC,0.00,VWS V14.01,2013-10-17 10:20:00,
2013-10-17 05:40:00,33.6,33.1,29.79,East,90,0.0,0.0,98,0.00,,SKC,0.00,VWS V14.01,2013-10-17 10:40:00,
2013-10-17 06:00:00,34.2,33.7,29.79,East,90,0.0,0.0,98,0.00,,SKC,0.00,VWS V14.01,2013-10-17 11:00:00,
2013-10-17 06:20:00,34.5,34.0,29.76,ESE,112,0.0,0.0,98,0.00,,SKC,0.00,VWS V14.01,2013-10-17 11:20:00,
2013-10-17 06:40:00,34.9,34.4,29.79,ESE,112,0.0,0.0,98,0.00,,SKC,0.00,VWS V14.01,2013-10-17 11:40:00,
2013-10-17 07:00:00,35.1,34.5,29.79,ESE,112,0.0,0.0,98,0.00,,SKC,0.00,VWS V14.01,2013-10-17 12:00:00,
2013-10-17 07:20:00,35.2,34.7,29.76,ESE,112,0.0,0.0,98,0.00,,SKC,0.00,VWS V14.01,2013-10-17 12:20:00,
2013-10-17 07:40:00,35.2,34.7,29.76,ESE,112,0.0,0.0,98,0.00,,SKC,0.00,VWS V14.01,2013-10-17 12:40:00,
2013-10-17 08:00:00,35.4,34.9,29.76,ESE,112,0.0,0.0,98,0.00,,SKC,0.00,VWS V14.01,2013-10-17 13:00:00,
2013-10-17 08:20:00,36.1,35.6,29.76,ESE,112,0.0,0.0,98,0.00,,SKC,0.00,VWS V14.01,2013-10-17 13:20:00,
2013-10-17 08:40:00,36.9,36.3,29.79,ESE,112,0.0,0.0,98,0.00,,SKC,0.00,VWS V14.01,2013-10-17 13:40:00,
2013-10-17 09:00:00,37.8,37.2,29.76,ESE,112,0.0,0.0,98,0.00,,SKC,0.00,VWS V14.01,2013-10-17 14:00:00,
2013-10-17 09:19:00,39.2,38.7,29.76,ESE,112,0.0,2.7,98,0.00,,SKC,0.00,VWS V14.01,2013-10-17 14:19:00,
2013-10-17 09:40:00,41.0,40.5,29.76,ESE,112,0.0,4.7,98,0.00,,SKC,0.00,VWS V14.01,2013-10-17 14:40:00,
2013-10-17 10:00:00,42.6,42.1,29.76,SE,135,0.0,2.7,98,0.00,,SKC,0.00,VWS V14.01,2013-10-17 15:00:00,
2013-10-17 10:20:00,44.1,43.3,29.76,ESE,112,0.0,4.7,97,0.00,,SKC,0.00,VWS V14.01,2013-10-17 15:20:00,
2013-10-17 10:40:00,45.5,44.4,29.76,SSE,158,1.5,5.1,96,0.00,,SKC,0.00,VWS V14.01,2013-10-17 15:40:00,
2013-10-17 11:00:00,46.4,43.9,29.76,SSE,158,0.0,4.7,91,0.00,,SKC,0.00,VWS V14.01,2013-10-17 16:00:00,
2013-10-17 11:20:00,46.8,43.4,29.76,SSE,158,0.0,4.7,88,0.00,,SKC,0.00,VWS V14.01,2013-10-17 16:20:00,
2013-10-17 11:39:00,46.9,43.3,29.76,SSE,158,0.0,0.0,87,0.00,,SKC,0.00,VWS V14.01,2013-10-17 16:39:00,
2013-10-17 12:00:00,47.3,43.3,29.76,South,180,0.0,3.9,86,0.00,,SKC,0.00,VWS V14.01,2013-10-17 17:00:00,
2013-10-17 12:20:00,47.8,43.9,29.76,ESE,112,0.0,5.1,86,0.00,,SKC,0.00,VWS V14.01,2013-10-17 17:20:00,
2013-10-17 12:40:00,48.2,44.2,29.76,SSW,202,0.0,5.1,86,0.00,,SKC,0.00,VWS V14.01,2013-10-17 17:40:00,
2013-10-17 13:00:00,48.9,44.0,29.76,SSE,158,0.0,4.3,83,0.00,,SKC,0.00,VWS V14.01,2013-10-17 18:00:00,
2013-10-17 13:20:00,49.5,43.6,29.76,East,90,1.3,5.1,80,0.00,,SKC,0.00,VWS V14.01,2013-10-17 18:20:00,
2013-10-17 13:40:00,50.9,44.3,29.74,SSE,158,1.0,4.3,78,0.00,,SKC,0.00,VWS V14.01,2013-10-17 18:40:00,
2013-10-17 14:00:00,51.3,43.6,29.74,ESE,112,0.0,5.1,75,0.00,,SKC,0.00,VWS V14.01,2013-10-17 19:00:00,
2013-10-17 14:20:00,51.8,43.8,29.74,SE,135,0.0,5.1,74,0.00,,SKC,0.00,VWS V14.01,2013-10-17 19:20:00,
2013-10-17 14:40:00,52.2,43.8,29.74,SSE,158,0.0,3.5,73,0.00,,SKC,0.00,VWS V14.01,2013-10-17 19:40:00,
2013-10-17 15:00:00,51.6,41.8,29.74,WNW,292,0.0,5.9,69,0.00,,SKC,0.00,VWS V14.01,2013-10-17 20:00:00,
2013-10-17 15:20:00,51.6,42.5,29.74,SE,135,0.0,5.9,71,0.00,,SKC,0.00,VWS V14.01,2013-10-17 20:20:00,
2013-10-17 15:40:00,51.3,41.8,29.74,NW,315,0.0,4.7,70,0.00,,SKC,0.00,VWS V14.01,2013-10-17 20:40:00,
2013-10-17 16:00:00,50.9,41.8,29.74,ESE,112,0.0,2.7,71,0.00,,SKC,0.00,VWS V14.01,2013-10-17 21:00:00,
2013-10-17 16:19:00,50.5,41.5,29.74,NE,45,2.6,5.1,71,0.00,,SKC,0.00,VWS V14.01,2013-10-17 21:19:00,
2013-10-17 16:20:00,50.5,41.5,29.74,NE,45,2.6,5.1,71,0.00,,SKC,0.00,VWS V14.01,2013-10-17 21:20:00,
2013-10-17 16:40:00,50.0,41.0,29.74,NE,45,1.3,5.9,71,0.00,,SKC,0.00,VWS V14.01,2013-10-17 21:40:00,
2013-10-17 17:00:00,49.8,41.5,29.74,ESE,112,0.0,4.3,73,0.00,,SKC,0.00,VWS V14.01,2013-10-17 22:00:00,
2013-10-17 17:19:00,49.1,40.8,29.74,NE,45,0.0,1.6,73,0.00,,SKC,0.00,VWS V14.01,2013-10-17 22:19:00,
2013-10-17 17:20:00,49.1,40.8,29.74,NE,45,0.0,1.6,73,0.00,,SKC,0.00,VWS V14.01,2013-10-17 22:20:00,
2013-10-17 17:39:00,48.4,40.8,29.74,ESE,112,0.0,0.0,75,0.00,,SKC,0.00,VWS V14.01,2013-10-17 22:39:00,
2013-10-17 17:40:00,48.4,40.8,29.74,ESE,112,0.0,0.0,75,0.00,,SKC,0.00,VWS V14.01,2013-10-17 22:40:00,
2013-10-17 18:00:00,47.8,41.7,29.74,ESE,112,0.0,0.0,79,0.00,,SKC,0.00,VWS V14.01,2013-10-17 23:00:00,
2013-10-17 18:19:00,47.1,41.9,29.74,ESE,112,0.0,0.0,82,0.00,,SKC,0.00,VWS V14.01,2013-10-17 23:19:00,
2013-10-17 18:20:00,47.1,41.9,29.74,ESE,112,0.0,0.0,82,0.00,,SKC,0.00,VWS V14.01,2013-10-17 23:20:00,
2013-10-17 18:39:00,46.8,42.2,29.76,ESE,112,0.0,0.0,84,0.00,,SKC,0.00,VWS V14.01,2013-10-17 23:39:00,
2013-10-17 18:40:00,46.8,42.2,29.76,ESE,112,0.0,0.0,84,0.00,,SKC,0.00,VWS V14.01,2013-10-17 23:40:00,
2013-10-17 19:00:00,46.2,42.3,29.74,ESE,112,0.0,0.0,86,0.00,,SKC,0.00,VWS V14.01,2013-10-18 00:00:00,
2013-10-17 19:19:00,45.7,42.3,29.76,ESE,112,0.0,0.0,88,0.00,,SKC,0.00,VWS V14.01,2013-10-18 00:19:00,
2013-10-17 19:20:00,45.7,42.3,29.76,ESE,112,0.0,0.0,88,0.00,,SKC,0.00,VWS V14.01,2013-10-18 00:20:00,
2013-10-17 19:40:00,45.3,42.8,29.76,ESE,112,0.0,0.0,91,0.00,,SKC,0.00,VWS V14.01,2013-10-18 00:40:00,
2013-10-17 20:00:00,45.1,43.0,29.76,ESE,112,0.0,0.0,92,0.00,,SKC,0.00,VWS V14.01,2013-10-18 01:00:00,
2013-10-17 20:20:00,45.0,43.3,29.76,ESE,112,0.0,0.0,94,0.00,,SKC,0.00,VWS V14.01,2013-10-18 01:20:00,
2013-10-17 20:40:00,45.0,43.6,29.76,ESE,112,0.0,0.0,95,0.04,,SKC,0.04,VWS V14.01,2013-10-18 01:40:00,
2013-10-17 21:00:00,44.8,43.7,29.76,ESE,112,0.0,0.0,96,0.04,,SKC,0.04,VWS V14.01,2013-10-18 02:00:00,
2013-10-17 21:20:00,44.8,43.7,29.76,ESE,112,0.0,0.0,96,0.04,,SKC,0.04,VWS V14.01,2013-10-18 02:20:00,
2013-10-17 21:40:00,44.8,44.0,29.76,ESE,112,0.0,0.0,97,0.04,,SKC,0.04,VWS V14.01,2013-10-18 02:40:00,
2013-10-17 22:00:00,44.8,44.0,29.74,ESE,112,0.0,0.0,97,0.00,,SKC,0.04,VWS V14.01,2013-10-18 03:00:00,
2013-10-17 22:20:00,44.6,43.8,29.76,ESE,112,0.0,0.0,97,0.00,,SKC,0.04,VWS V14.01,2013-10-18 03:20:00,
2013-10-17 22:40:00,44.8,44.2,29.74,ESE,112,0.0,0.0,98,0.04,,SKC,0.08,VWS V14.01,2013-10-18 03:40:00,
2013-10-17 23:00:00,44.6,44.1,29.74,ESE,112,0.0,0.0,98,0.04,,SKC,0.08,VWS V14.01,2013-10-18 04:00:00,
2013-10-17 23:20:00,44.6,44.1,29.76,ESE,112,0.0,2.0,98,0.04,,SKC,0.08,VWS V14.01,2013-10-18 04:20:00,
2013-10-17 23:40:00,44.6,44.1,29.74,ESE,112,0.0,0.0,98,0.04,,SKC,0.08,VWS V14.01,2013-10-18 04:40:00,